createdAt,value
2018-10-15T00:00:29.149Z,18.90
2018-10-15T00:01:29.247Z,20.50
2018-10-15T00:02:29.334Z,20.60
2018-10-15T00:03:29.424Z,18.50
2018-10-15T00:04:29.515Z,19.60
2018-10-15T00:05:29.609Z,18.40
2018-10-15T00:06:29.727Z,21.80
2018-10-15T00:07:29.788Z,18.00
2018-10-15T00:08:29.884Z,19.10
2018-10-15T00:09:29.984Z,18.80
2018-10-15T00:10:30.068Z,17.50
2018-10-15T00:11:30.159Z,19.10
2018-10-15T00:12:30.249Z,18.10
2018-10-15T00:13:30.336Z,17.90
2018-10-15T00:14:30.423Z,18.10
2018-10-15T00:15:30.512Z,18.00
2018-10-15T00:16:30.602Z,18.70
2018-10-15T00:17:30.692Z,18.60
2018-10-15T00:18:30.774Z,19.10
2018-10-15T00:19:30.864Z,17.90
2018-10-15T00:20:30.952Z,20.20
2018-10-15T00:21:31.045Z,18.50
2018-10-15T00:22:31.141Z,17.90
2018-10-15T00:23:31.231Z,18.50
2018-10-15T00:24:31.316Z,18.20
2018-10-15T00:25:31.399Z,18.70
2018-10-15T00:26:31.512Z,19.40
2018-10-15T00:27:31.609Z,18.00
2018-10-15T00:28:31.698Z,18.70
2018-10-15T00:29:31.789Z,17.60
2018-10-15T00:30:31.881Z,18.00
2018-10-15T00:31:31.971Z,19.10
2018-10-15T00:32:32.063Z,18.40
2018-10-15T00:33:32.168Z,18.40
2018-10-15T00:34:32.263Z,16.70
2018-10-15T00:35:32.350Z,17.40
2018-10-15T00:36:32.441Z,17.50
2018-10-15T00:37:32.536Z,20.30
2018-10-15T00:38:32.634Z,17.80
2018-10-15T00:39:32.732Z,17.90
2018-10-15T00:40:32.816Z,18.30
2018-10-15T00:41:32.916Z,19.10
2018-10-15T00:42:33.003Z,22.40
2018-10-15T00:43:33.100Z,18.00
2018-10-15T00:44:33.185Z,18.20
2018-10-15T00:45:33.271Z,18.40
2018-10-15T00:46:33.362Z,19.30
2018-10-15T00:47:33.450Z,18.40
2018-10-15T00:48:33.543Z,18.40
2018-10-15T00:49:33.633Z,17.90
2018-10-15T00:50:33.724Z,19.50
2018-10-15T00:51:33.814Z,18.50
2018-10-15T00:52:33.908Z,18.30
2018-10-15T00:53:33.997Z,17.70
2018-10-15T00:54:34.094Z,17.90
2018-10-15T00:55:34.178Z,17.60
2018-10-15T00:56:34.255Z,17.00
2018-10-15T00:57:34.369Z,18.40
2018-10-15T00:58:34.458Z,17.40
2018-10-15T00:59:34.550Z,17.10
2018-10-15T01:00:34.643Z,17.80
2018-10-15T01:01:34.736Z,17.30
2018-10-15T01:02:34.827Z,17.10
2018-10-15T01:03:34.919Z,17.80
2018-10-15T01:04:35.004Z,17.80
2018-10-15T01:05:35.098Z,18.30
2018-10-15T01:06:35.187Z,17.90
2018-10-15T01:07:35.270Z,17.90
2018-10-15T01:08:35.373Z,18.20
2018-10-15T01:09:35.446Z,17.30
2018-10-15T01:10:35.532Z,17.20
2018-10-15T01:11:35.635Z,17.30
2018-10-15T01:12:35.727Z,17.50
2018-10-15T01:13:35.822Z,17.80
2018-10-15T01:14:35.936Z,17.50
2018-10-15T01:15:36.003Z,17.40
2018-10-15T01:16:36.105Z,18.10
2018-10-15T01:17:36.199Z,18.30
2018-10-15T01:18:36.290Z,17.90
2018-10-15T01:19:43.534Z,17.50
2018-10-15T01:20:36.501Z,18.10
2018-10-15T01:21:36.596Z,19.00
2018-10-15T01:22:36.684Z,19.50
2018-10-15T01:23:36.775Z,18.70
2018-10-15T01:24:36.863Z,18.00
2018-10-15T01:25:36.956Z,18.50
2018-10-15T01:26:37.046Z,17.70
2018-10-15T01:27:37.135Z,18.80
2018-10-15T01:28:37.229Z,18.10
2018-10-15T01:29:37.320Z,19.80
2018-10-15T01:30:37.409Z,17.30
2018-10-15T01:31:37.500Z,17.60
2018-10-15T01:32:37.585Z,17.90
2018-10-15T01:33:37.681Z,17.50
2018-10-15T01:34:37.771Z,17.50
2018-10-15T01:35:37.859Z,17.70
2018-10-15T01:36:37.952Z,17.80
2018-10-15T01:37:38.042Z,17.60
2018-10-15T01:38:38.134Z,17.50
2018-10-15T01:39:38.223Z,17.00
2018-10-15T01:40:38.319Z,17.20
2018-10-15T01:41:38.411Z,18.40
2018-10-15T01:42:38.498Z,17.20
2018-10-15T01:43:38.592Z,17.10
2018-10-15T01:44:38.683Z,17.40
2018-10-15T01:45:38.778Z,18.00
2018-10-15T01:46:38.866Z,17.00
2018-10-15T01:47:38.957Z,18.90
2018-10-15T01:48:39.056Z,17.30
2018-10-15T01:49:39.151Z,18.60
2018-10-15T01:50:39.232Z,18.10
2018-10-15T01:51:39.323Z,18.40
2018-10-15T01:52:39.411Z,18.00
2018-10-15T01:53:39.508Z,17.40
2018-10-15T01:54:39.599Z,17.90
2018-10-15T01:55:39.693Z,17.00
2018-10-15T01:56:39.784Z,17.40
2018-10-15T01:57:39.872Z,16.90
2018-10-15T01:58:39.963Z,16.70
2018-10-15T01:59:40.054Z,17.00
2018-10-15T02:00:40.149Z,16.30
2018-10-15T02:01:40.234Z,17.60
2018-10-15T02:02:40.327Z,18.00
2018-10-15T02:03:40.416Z,17.60
2018-10-15T02:04:40.506Z,17.80
2018-10-15T02:05:40.598Z,18.10
2018-10-15T02:06:40.687Z,17.30
2018-10-15T02:07:40.785Z,18.20
2018-10-15T02:08:40.875Z,18.10
2018-10-15T02:09:40.964Z,17.90
2018-10-15T02:10:41.058Z,18.40
2018-10-15T02:11:41.176Z,17.90
2018-10-15T02:12:41.226Z,17.20
2018-10-15T02:13:41.314Z,17.80
2018-10-15T02:14:41.401Z,18.50
2018-10-15T02:15:41.494Z,18.00
2018-10-15T02:16:41.583Z,17.60
2018-10-15T02:17:41.673Z,16.40
2018-10-15T02:18:41.766Z,16.40
2018-10-15T02:19:41.860Z,16.60
2018-10-15T02:20:41.943Z,18.70
2018-10-15T02:21:42.039Z,18.70
2018-10-15T02:22:42.132Z,17.70
2018-10-15T02:23:42.220Z,17.50
2018-10-15T02:24:42.310Z,18.40
2018-10-15T02:25:42.404Z,16.90
2018-10-15T02:26:42.493Z,18.70
2018-10-15T02:27:42.581Z,17.70
2018-10-15T02:28:42.672Z,17.10
2018-10-15T02:29:42.766Z,16.40
2018-10-15T02:30:42.856Z,16.50
2018-10-15T02:31:42.953Z,16.30
2018-10-15T02:32:43.037Z,17.00
2018-10-15T02:33:43.131Z,16.80
2018-10-15T02:34:43.223Z,16.70
2018-10-15T02:35:43.314Z,16.80
2018-10-15T02:36:43.401Z,16.30
2018-10-15T02:37:43.498Z,17.00
2018-10-15T02:38:43.583Z,16.10
2018-10-15T02:39:43.675Z,17.00
2018-10-15T02:40:43.764Z,18.30
2018-10-15T02:41:43.856Z,17.30
2018-10-15T02:42:43.944Z,17.10
2018-10-15T02:43:44.044Z,16.20
2018-10-15T02:44:44.138Z,17.20
2018-10-15T02:45:44.216Z,16.60
2018-10-15T02:46:44.306Z,16.60
2018-10-15T02:47:44.398Z,17.10
2018-10-15T02:48:44.491Z,16.70
2018-10-15T02:49:44.581Z,17.10
2018-10-15T02:50:44.673Z,16.80
2018-10-15T02:51:44.767Z,18.00
2018-10-15T02:52:44.854Z,17.50
2018-10-15T02:53:44.946Z,18.40
2018-10-15T02:54:45.035Z,17.60
2018-10-15T02:55:45.127Z,16.60
2018-10-15T02:56:45.216Z,18.00
2018-10-15T02:57:45.306Z,18.80
2018-10-15T02:58:45.398Z,17.90
2018-10-15T02:59:45.487Z,18.00
2018-10-15T03:00:45.580Z,17.60
2018-10-15T03:01:45.669Z,16.80
2018-10-15T03:02:45.763Z,17.50
2018-10-15T03:03:45.852Z,17.50
2018-10-15T03:04:45.942Z,16.90
2018-10-15T03:05:46.034Z,17.30
2018-10-15T03:06:46.122Z,16.50
2018-10-15T03:07:46.213Z,17.00
2018-10-15T03:08:46.303Z,18.80
2018-10-15T03:09:46.398Z,18.20
2018-10-15T03:10:46.488Z,17.90
2018-10-15T03:11:46.579Z,18.10
2018-10-15T03:12:46.672Z,17.60
2018-10-15T03:13:46.762Z,17.90
2018-10-15T03:14:46.851Z,17.80
2018-10-15T03:15:46.943Z,17.80
2018-10-15T03:16:47.038Z,20.00
2018-10-15T03:17:47.124Z,16.80
2018-10-15T03:18:47.214Z,17.10
2018-10-15T03:19:47.311Z,17.70
2018-10-15T03:20:47.399Z,19.80
2018-10-15T03:21:47.493Z,17.40
2018-10-15T03:22:47.583Z,18.30
2018-10-15T03:23:47.668Z,17.80
2018-10-15T03:24:47.768Z,18.10
2018-10-15T03:25:47.858Z,21.90
2018-10-15T03:26:47.952Z,16.70
2018-10-15T03:27:48.045Z,17.20
2018-10-15T03:28:48.136Z,17.90
2018-10-15T03:29:48.223Z,16.60
2018-10-15T03:30:48.317Z,16.90
2018-10-15T03:31:48.407Z,17.30
2018-10-15T03:32:48.499Z,19.40
2018-10-15T03:33:48.587Z,18.20
2018-10-15T03:34:48.683Z,17.80
2018-10-15T03:35:48.775Z,16.70
2018-10-15T03:36:48.861Z,17.90
2018-10-15T03:37:48.949Z,17.00
2018-10-15T03:38:49.040Z,18.50
2018-10-15T03:39:49.132Z,17.90
2018-10-15T03:40:49.220Z,16.70
2018-10-15T03:41:49.313Z,16.60
2018-10-15T03:42:49.395Z,16.50
2018-10-15T03:43:49.504Z,16.10
2018-10-15T03:44:49.595Z,16.90
2018-10-15T03:45:49.689Z,16.60
2018-10-15T03:46:49.777Z,17.20
2018-10-15T03:47:49.867Z,16.30
2018-10-15T03:48:49.958Z,15.20
2018-10-15T03:49:50.050Z,16.10
2018-10-15T03:50:50.143Z,16.80
2018-10-15T03:51:50.232Z,16.50
2018-10-15T03:52:50.325Z,16.60
2018-10-15T03:53:50.414Z,17.50
2018-10-15T03:54:50.503Z,16.10
2018-10-15T03:55:50.590Z,16.00
2018-10-15T03:56:50.678Z,16.70
2018-10-15T03:57:50.769Z,16.50
2018-10-15T03:58:50.863Z,17.30
2018-10-15T03:59:50.952Z,17.30
2018-10-15T04:00:51.040Z,16.30
2018-10-15T04:01:51.130Z,17.20
2018-10-15T04:02:51.222Z,16.40
2018-10-15T04:03:51.309Z,15.80
2018-10-15T04:04:51.402Z,16.50
2018-10-15T04:05:51.495Z,16.50
2018-10-15T04:06:51.581Z,17.40
2018-10-15T04:07:51.693Z,16.60
2018-10-15T04:08:51.786Z,16.00
2018-10-15T04:09:51.873Z,16.20
2018-10-15T04:10:51.967Z,18.20
2018-10-15T04:11:52.056Z,16.70
2018-10-15T04:12:52.145Z,18.00
2018-10-15T04:13:52.236Z,15.40
2018-10-15T04:14:52.325Z,15.80
2018-10-15T04:15:52.415Z,17.10
2018-10-15T04:16:52.505Z,17.30
2018-10-15T04:17:52.595Z,18.10
2018-10-15T04:18:52.685Z,15.60
2018-10-15T04:19:52.776Z,16.00
2018-10-15T04:20:52.857Z,16.00
2018-10-15T04:21:52.987Z,15.80
2018-10-15T04:22:53.069Z,15.70
2018-10-15T04:23:53.163Z,16.20
2018-10-15T04:24:53.249Z,17.30
2018-10-15T04:25:53.337Z,15.40
2018-10-15T04:26:53.430Z,15.80
2018-10-15T04:27:53.522Z,17.70
2018-10-15T04:28:53.608Z,16.70
2018-10-15T04:29:53.699Z,17.70
2018-10-15T04:30:53.792Z,17.30
2018-10-15T04:31:53.883Z,15.20
2018-10-15T04:32:53.971Z,17.20
2018-10-15T04:33:54.061Z,15.40
2018-10-15T04:34:54.149Z,17.40
2018-10-15T04:35:54.239Z,16.20
2018-10-15T04:36:54.328Z,16.50
2018-10-15T04:37:54.500Z,15.60
2018-10-15T04:38:54.508Z,15.70
2018-10-15T04:39:54.600Z,16.10
2018-10-15T04:40:54.691Z,16.40
2018-10-15T04:41:54.780Z,15.60
2018-10-15T04:42:54.869Z,16.00
2018-10-15T04:43:54.960Z,15.90
2018-10-15T04:44:55.051Z,15.10
2018-10-15T04:45:55.157Z,15.70
2018-10-15T04:46:55.253Z,16.20
2018-10-15T04:47:55.344Z,15.70
2018-10-15T04:48:55.463Z,18.50
2018-10-15T04:49:55.541Z,18.20
2018-10-15T04:50:55.613Z,16.80
2018-10-15T04:51:55.705Z,18.00
2018-10-15T04:52:55.791Z,17.00
2018-10-15T04:53:55.879Z,17.00
2018-10-15T04:54:55.975Z,16.30
2018-10-15T04:55:56.060Z,15.90
2018-10-15T04:56:56.151Z,16.30
2018-10-15T04:57:56.237Z,16.80
2018-10-15T04:58:56.336Z,16.90
2018-10-15T04:59:56.428Z,15.40
2018-10-15T05:00:56.519Z,15.60
2018-10-15T05:01:56.601Z,15.90
2018-10-15T05:02:56.689Z,16.10
2018-10-15T05:03:56.781Z,16.00
2018-10-15T05:04:56.866Z,16.40
2018-10-15T05:05:56.947Z,15.40
2018-10-15T05:06:57.048Z,15.70
2018-10-15T05:07:57.116Z,17.70
2018-10-15T05:08:57.206Z,15.70
2018-10-15T05:09:57.291Z,16.10
2018-10-15T05:10:57.394Z,16.80
2018-10-15T05:11:57.500Z,18.90
2018-10-15T05:12:57.599Z,16.60
2018-10-15T05:13:57.685Z,16.40
2018-10-15T05:14:57.774Z,15.60
2018-10-15T05:15:57.870Z,16.10
2018-10-15T05:16:57.954Z,17.40
2018-10-15T05:17:58.039Z,17.10
2018-10-15T05:18:58.126Z,14.40
2018-10-15T05:19:58.219Z,15.80
2018-10-15T05:20:58.399Z,17.00
2018-10-15T05:21:58.395Z,15.20
2018-10-15T05:22:58.496Z,14.90
2018-10-15T05:23:58.571Z,14.50
2018-10-15T05:24:58.646Z,15.50
2018-10-15T05:25:58.735Z,15.50
2018-10-15T05:26:58.828Z,15.40
2018-10-15T05:27:58.912Z,16.50
2018-10-15T05:28:58.991Z,15.90
2018-10-15T05:29:59.108Z,15.60
2018-10-15T05:30:59.169Z,15.00
2018-10-15T05:31:59.256Z,17.60
2018-10-15T05:32:59.348Z,16.00
2018-10-15T05:33:59.440Z,16.80
2018-10-15T05:34:59.529Z,16.20
2018-10-15T05:35:59.619Z,14.40
2018-10-15T05:36:59.706Z,16.60
2018-10-15T05:37:59.798Z,17.20
2018-10-15T05:38:59.885Z,16.00
2018-10-15T05:39:59.975Z,18.10
2018-10-15T05:41:00.066Z,17.90
2018-10-15T05:42:00.205Z,16.90
2018-10-15T05:43:00.253Z,17.50
2018-10-15T05:44:00.344Z,18.00
2018-10-15T05:45:00.435Z,18.80
2018-10-15T05:46:00.528Z,21.00
2018-10-15T05:47:00.634Z,19.60
2018-10-15T05:48:00.735Z,18.50
2018-10-15T05:49:00.803Z,18.80
2018-10-15T05:50:00.890Z,18.40
2018-10-15T05:51:00.982Z,18.10
2018-10-15T05:52:01.098Z,17.20
2018-10-15T05:53:01.163Z,18.00
2018-10-15T05:54:01.260Z,17.80
2018-10-15T05:55:01.345Z,17.30
2018-10-15T05:56:01.436Z,18.00
2018-10-15T05:57:01.527Z,18.50
2018-10-15T05:58:01.614Z,17.60
2018-10-15T05:59:01.707Z,18.00
2018-10-15T06:00:01.840Z,16.40
2018-10-15T06:01:01.905Z,18.20
2018-10-15T06:02:01.997Z,17.50
2018-10-15T06:03:02.076Z,19.00
2018-10-15T06:04:02.164Z,17.50
2018-10-15T06:05:02.258Z,18.50
2018-10-15T06:06:02.398Z,18.40
2018-10-15T06:07:02.438Z,18.60
2018-10-15T06:08:02.523Z,18.20
2018-10-15T06:09:02.616Z,18.60
2018-10-15T06:10:02.708Z,17.70
2018-10-15T06:11:02.795Z,16.60
2018-10-15T06:12:02.911Z,19.20
2018-10-15T06:13:03.046Z,18.50
2018-10-15T06:14:03.057Z,17.60
2018-10-15T06:15:03.160Z,18.50
2018-10-15T06:16:03.250Z,19.20
2018-10-15T06:17:03.329Z,20.90
2018-10-15T06:18:03.441Z,19.00
2018-10-15T06:19:03.526Z,17.90
2018-10-15T06:20:03.627Z,19.10
2018-10-15T06:21:03.715Z,17.70
2018-10-15T06:22:03.809Z,18.80
2018-10-15T06:23:03.898Z,17.20
2018-10-15T06:24:04.001Z,19.00
2018-10-15T06:25:04.077Z,17.00
2018-10-15T06:26:04.168Z,16.30
2018-10-15T06:27:04.255Z,17.00
2018-10-15T06:28:04.389Z,18.10
2018-10-15T06:29:04.435Z,24.00
2018-10-15T06:30:04.561Z,18.50
2018-10-15T06:31:04.620Z,18.10
2018-10-15T06:32:04.713Z,18.80
2018-10-15T06:33:04.807Z,17.60
2018-10-15T06:34:04.901Z,18.70
2018-10-15T06:35:04.993Z,17.80
2018-10-15T06:36:05.096Z,18.10
2018-10-15T06:37:05.225Z,16.90
2018-10-15T06:38:05.326Z,17.30
2018-10-15T06:39:05.367Z,18.90
2018-10-15T06:40:05.452Z,17.00
2018-10-15T06:41:05.555Z,16.60
2018-10-15T06:42:05.654Z,17.10
2018-10-15T06:43:05.722Z,17.00
2018-10-15T06:44:05.833Z,16.20
2018-10-15T06:45:05.976Z,17.30
2018-10-15T06:46:06.040Z,16.40
2018-10-15T06:47:06.134Z,16.30
2018-10-15T06:48:06.174Z,17.00
2018-10-15T06:49:06.279Z,17.40
2018-10-15T06:50:06.355Z,16.10
2018-10-15T06:51:06.486Z,17.40
2018-10-15T06:52:06.602Z,18.20
2018-10-15T06:53:06.675Z,19.00
2018-10-15T06:54:06.718Z,19.60
2018-10-15T06:55:06.837Z,17.90
2018-10-15T06:56:06.897Z,19.80
2018-10-15T06:57:07.018Z,21.90
2018-10-15T06:58:07.096Z,19.70
2018-10-15T06:59:07.229Z,18.90
2018-10-15T07:00:07.336Z,20.70
2018-10-15T07:01:07.392Z,19.50
2018-10-15T07:02:07.480Z,17.40
2018-10-15T07:03:07.593Z,19.80
2018-10-15T07:04:07.681Z,19.40
2018-10-15T07:05:07.734Z,17.40
2018-10-15T07:06:07.843Z,17.80
2018-10-15T07:07:07.930Z,21.70
2018-10-15T07:08:08.007Z,17.40
2018-10-15T07:09:08.154Z,19.30
2018-10-15T07:10:08.258Z,18.10
2018-10-15T07:11:08.280Z,17.80
2018-10-15T07:12:08.400Z,16.80
2018-10-15T07:13:08.515Z,17.60
2018-10-15T07:14:08.631Z,17.80
2018-10-15T07:15:08.647Z,19.00
2018-10-15T07:16:08.750Z,17.70
2018-10-15T07:17:08.829Z,16.10
2018-10-15T07:18:08.940Z,15.20
2018-10-15T07:19:16.988Z,14.30
2018-10-15T07:20:09.163Z,15.00
2018-10-15T07:21:09.229Z,15.70
2018-10-15T07:22:09.329Z,15.50
2018-10-15T07:23:09.411Z,15.20
2018-10-15T07:24:09.562Z,15.80
2018-10-15T07:25:09.601Z,15.10
2018-10-15T07:26:09.689Z,16.10
2018-10-15T07:27:09.775Z,15.80
2018-10-15T07:28:09.961Z,15.40
2018-10-15T07:29:09.955Z,16.40
2018-10-15T07:30:10.048Z,15.40
2018-10-15T07:31:10.137Z,14.90
2018-10-15T07:32:10.285Z,15.50
2018-10-15T07:33:10.317Z,15.50
2018-10-15T07:34:10.451Z,16.00
2018-10-15T07:35:10.495Z,15.60
2018-10-15T07:36:10.642Z,15.60
2018-10-15T07:37:10.679Z,15.40
2018-10-15T07:38:10.794Z,15.00
2018-10-15T07:39:10.873Z,16.30
2018-10-15T07:40:11.001Z,16.20
2018-10-15T07:41:11.041Z,14.90
2018-10-15T07:42:11.142Z,16.90
2018-10-15T07:43:11.224Z,15.20
2018-10-15T07:44:11.369Z,15.60
2018-10-15T07:45:11.415Z,16.00
2018-10-15T07:46:11.543Z,15.90
2018-10-15T07:47:11.597Z,16.80
2018-10-15T07:48:11.720Z,17.30
2018-10-15T07:49:11.771Z,17.20
2018-10-15T07:50:11.870Z,16.30
2018-10-15T07:51:11.951Z,16.60
2018-10-15T07:52:12.115Z,16.30
2018-10-15T07:53:12.133Z,15.70
2018-10-15T07:54:12.226Z,15.80
2018-10-15T07:55:12.312Z,16.20
2018-10-15T07:56:12.434Z,18.20
2018-10-15T07:57:12.495Z,16.80
2018-10-15T07:58:12.603Z,16.50
2018-10-15T07:59:12.741Z,16.50
2018-10-15T08:00:12.771Z,15.60
2018-10-15T08:01:12.861Z,16.30
2018-10-15T08:02:13.043Z,15.90
2018-10-15T08:03:13.043Z,15.60
2018-10-15T08:04:13.217Z,16.60
2018-10-15T08:05:13.254Z,16.40
2018-10-15T08:06:13.319Z,16.40
2018-10-15T08:07:13.411Z,17.40
2018-10-15T08:08:13.562Z,17.70
2018-10-15T08:09:13.594Z,16.60
2018-10-15T08:10:13.706Z,16.90
2018-10-15T08:11:13.816Z,16.80
2018-10-15T08:12:13.868Z,17.90
2018-10-15T08:13:13.959Z,18.00
2018-10-15T08:14:14.112Z,17.20
2018-10-15T08:15:14.227Z,16.50
2018-10-15T08:16:14.291Z,17.90
2018-10-15T08:17:14.330Z,19.00
2018-10-15T08:18:14.421Z,17.70
2018-10-15T08:19:14.512Z,18.40
2018-10-15T08:20:14.654Z,18.30
2018-10-15T08:21:14.706Z,17.50
2018-10-15T08:22:14.800Z,19.20
2018-10-15T08:23:14.881Z,18.40
2018-10-15T08:24:14.972Z,18.80
2018-10-15T08:25:15.067Z,18.00
2018-10-15T08:26:15.203Z,18.30
2018-10-15T08:27:15.288Z,19.40
2018-10-15T08:28:15.350Z,17.90
2018-10-15T08:29:15.432Z,20.00
2018-10-15T08:30:15.520Z,19.30
2018-10-15T08:31:15.622Z,18.70
2018-10-15T08:32:15.713Z,19.60
2018-10-15T08:33:15.805Z,20.60
2018-10-15T08:34:15.898Z,20.50
2018-10-15T08:35:16.033Z,20.30
2018-10-15T08:36:16.095Z,19.40
2018-10-15T08:37:16.189Z,19.50
2018-10-15T08:38:16.280Z,20.50
2018-10-15T08:39:16.373Z,18.60
2018-10-15T08:40:16.465Z,18.70
2018-10-15T08:41:16.603Z,19.00
2018-10-15T08:42:16.767Z,20.20
2018-10-15T08:43:16.738Z,20.50
2018-10-15T08:44:16.827Z,20.90
2018-10-15T08:45:16.917Z,20.10
2018-10-15T08:46:17.010Z,19.20
2018-10-15T08:47:17.101Z,18.90
2018-10-15T08:48:17.185Z,20.10
2018-10-15T08:49:17.288Z,19.20
2018-10-15T08:50:17.399Z,19.10
2018-10-15T08:51:17.471Z,18.60
2018-10-15T08:52:17.615Z,21.00
2018-10-15T08:53:17.656Z,18.60
2018-10-15T08:54:17.798Z,18.50
2018-10-15T08:55:17.842Z,18.90
2018-10-15T08:56:17.944Z,19.90
2018-10-15T08:57:18.037Z,19.20
2018-10-15T08:58:18.271Z,18.30
2018-10-15T08:59:18.225Z,21.00
2018-10-15T09:00:18.318Z,19.10
2018-10-15T09:01:18.412Z,17.60
2018-10-15T09:02:18.507Z,18.40
2018-10-15T09:03:18.597Z,17.60
2018-10-15T09:04:18.690Z,17.80
2018-10-15T09:05:18.783Z,18.50
2018-10-15T09:06:18.905Z,18.60
2018-10-15T09:07:18.996Z,18.70
2018-10-15T09:08:19.106Z,18.20
2018-10-15T09:09:19.358Z,18.70
2018-10-15T09:10:19.253Z,17.80
2018-10-15T09:11:19.348Z,18.30
2018-10-15T09:12:19.491Z,19.00
2018-10-15T09:13:19.611Z,17.90
2018-10-15T09:14:19.625Z,18.30
2018-10-15T09:15:19.709Z,19.90
2018-10-15T09:16:19.802Z,18.30
2018-10-15T09:17:19.907Z,19.30
2018-10-15T09:18:19.984Z,18.60
2018-10-15T09:19:20.078Z,18.00
2018-10-15T09:20:20.181Z,18.70
2018-10-15T09:21:20.295Z,18.70
2018-10-15T09:22:20.355Z,18.50
2018-10-15T09:23:20.448Z,18.70
2018-10-15T09:24:20.545Z,18.10
2018-10-15T09:25:20.635Z,18.10
2018-10-15T09:26:20.728Z,18.30
2018-10-15T09:27:21.000Z,17.80
2018-10-15T09:28:20.916Z,19.20
2018-10-15T09:29:21.007Z,19.00
2018-10-15T09:30:21.101Z,19.10
2018-10-15T09:31:21.240Z,17.80
2018-10-15T09:32:21.289Z,18.30
2018-10-15T09:33:21.389Z,18.60
2018-10-15T09:34:21.474Z,18.70
2018-10-15T09:35:21.602Z,17.20
2018-10-15T09:36:21.657Z,16.80
2018-10-15T09:37:21.754Z,16.40
2018-10-15T09:38:21.877Z,17.10
2018-10-15T09:39:21.937Z,16.20
2018-10-15T09:40:22.035Z,16.60
2018-10-15T09:41:22.172Z,17.20
2018-10-15T09:42:22.236Z,18.50
2018-10-15T09:43:22.328Z,16.90
2018-10-15T09:44:22.422Z,16.30
2018-10-15T09:45:22.517Z,17.00
2018-10-15T09:46:22.612Z,15.50
2018-10-15T09:47:22.707Z,15.40
2018-10-15T09:48:22.800Z,17.20
2018-10-15T09:49:22.896Z,16.90
2018-10-15T09:50:23.044Z,17.00
2018-10-15T09:51:23.088Z,17.30
2018-10-15T09:52:23.180Z,15.40
2018-10-15T09:53:23.316Z,15.40
2018-10-15T09:54:23.369Z,16.40
2018-10-15T09:55:23.460Z,14.90
2018-10-15T09:56:23.558Z,14.40
2018-10-15T09:57:23.650Z,14.60
2018-10-15T09:58:23.749Z,15.40
2018-10-15T09:59:23.844Z,14.60
2018-10-15T10:00:23.957Z,15.00
2018-10-15T10:01:24.052Z,14.40
2018-10-15T10:02:24.148Z,13.80
2018-10-15T10:03:24.242Z,13.20
2018-10-15T10:04:24.338Z,12.60
2018-10-15T10:05:24.430Z,13.70
2018-10-15T10:06:24.525Z,14.50
2018-10-15T10:07:24.648Z,13.90
2018-10-15T10:08:24.717Z,13.10
2018-10-15T10:09:24.814Z,14.00
2018-10-15T10:10:24.913Z,11.90
2018-10-15T10:11:25.006Z,15.20
2018-10-15T10:12:25.114Z,14.40
2018-10-15T10:13:25.201Z,13.40
2018-10-15T10:14:25.305Z,12.80
2018-10-15T10:15:25.388Z,15.80
2018-10-15T10:16:25.485Z,14.10
2018-10-15T10:17:25.698Z,14.80
2018-10-15T10:18:25.769Z,19.20
2018-10-15T10:19:25.772Z,19.90
2018-10-15T10:20:25.890Z,21.00
2018-10-15T10:21:25.984Z,20.70
2018-10-15T10:22:26.156Z,20.50
2018-10-15T10:23:26.178Z,17.50
2018-10-15T10:24:26.272Z,19.60
2018-10-15T10:25:26.366Z,15.20
2018-10-15T10:26:26.463Z,18.60
2018-10-15T10:27:26.615Z,14.60
2018-10-15T10:28:26.715Z,14.80
2018-10-15T10:29:26.753Z,15.20
2018-10-15T10:30:26.846Z,15.10
2018-10-15T10:31:26.943Z,16.90
2018-10-15T10:32:27.041Z,15.90
2018-10-15T10:33:27.181Z,14.00
2018-10-15T10:34:27.231Z,14.10
2018-10-15T10:35:27.346Z,13.50
2018-10-15T10:36:27.419Z,14.30
2018-10-15T10:37:27.514Z,13.20
2018-10-15T10:38:27.610Z,13.60
2018-10-15T10:39:27.704Z,12.80
2018-10-15T10:40:27.891Z,15.80
2018-10-15T10:41:27.897Z,12.50
2018-10-15T10:42:27.991Z,13.90
2018-10-15T10:43:28.089Z,14.50
2018-10-15T10:44:28.188Z,13.30
2018-10-15T10:45:28.309Z,14.50
2018-10-15T10:46:28.382Z,14.50
2018-10-15T10:47:28.471Z,13.10
2018-10-15T10:48:28.564Z,11.30
2018-10-15T10:49:28.659Z,13.40
2018-10-15T10:50:28.755Z,10.90
2018-10-15T10:51:28.852Z,11.10
2018-10-15T10:52:28.948Z,12.50
2018-10-15T10:53:29.049Z,12.70
2018-10-15T10:54:29.147Z,11.30
2018-10-15T10:55:29.245Z,14.10
2018-10-15T10:56:29.340Z,12.60
2018-10-15T10:57:29.439Z,12.90
2018-10-15T10:58:29.578Z,14.80
2018-10-15T10:59:29.696Z,13.10
2018-10-15T11:00:29.730Z,12.70
2018-10-15T11:01:29.825Z,14.10
2018-10-15T11:02:30.016Z,13.30
2018-10-15T11:03:30.021Z,11.10
2018-10-15T11:04:30.120Z,12.80
2018-10-15T11:05:30.273Z,13.20
2018-10-15T11:06:30.310Z,11.70
2018-10-15T11:07:30.402Z,13.30
2018-10-15T11:08:30.574Z,14.00
2018-10-15T11:09:30.595Z,13.20
2018-10-15T11:10:30.694Z,12.40
2018-10-15T11:11:30.791Z,11.50
2018-10-15T11:12:30.888Z,10.70
2018-10-15T11:13:30.987Z,11.30
2018-10-15T11:14:31.085Z,9.10
2018-10-15T11:15:31.181Z,11.60
2018-10-15T11:16:31.278Z,9.10
2018-10-15T11:17:31.374Z,9.00
2018-10-15T11:18:31.534Z,10.40
2018-10-15T11:19:31.572Z,9.60
2018-10-15T11:20:31.669Z,10.30
2018-10-15T11:21:31.770Z,10.20
2018-10-15T11:22:31.929Z,9.70
2018-10-15T11:23:31.968Z,9.10
2018-10-15T11:24:32.094Z,8.90
2018-10-15T11:25:32.193Z,9.50
2018-10-15T11:26:32.290Z,9.00
2018-10-15T11:27:32.387Z,9.10
2018-10-15T11:28:32.483Z,9.60
2018-10-15T11:29:32.669Z,9.40
2018-10-15T11:30:32.673Z,11.10
2018-10-15T11:31:32.766Z,9.10
2018-10-15T11:32:32.863Z,9.30
2018-10-15T11:33:32.964Z,13.00
2018-10-15T11:34:33.102Z,9.90
2018-10-15T11:35:33.159Z,10.30
2018-10-15T11:36:33.262Z,12.10
2018-10-15T11:37:33.358Z,10.40
2018-10-15T11:38:33.458Z,11.90
2018-10-15T11:39:33.555Z,9.30
2018-10-15T11:40:33.657Z,11.30
2018-10-15T11:41:33.752Z,11.90
2018-10-15T11:42:33.848Z,9.80
2018-10-15T11:43:33.982Z,9.90
2018-10-15T11:44:34.049Z,10.80
2018-10-15T11:45:34.145Z,9.50
2018-10-15T11:46:34.310Z,10.10
2018-10-15T11:47:34.356Z,10.80
2018-10-15T11:48:34.452Z,9.40
2018-10-15T11:49:34.551Z,10.40
2018-10-15T11:50:34.653Z,8.60
2018-10-15T11:51:34.826Z,10.20
2018-10-15T11:52:34.855Z,10.40
2018-10-15T11:53:34.977Z,8.50
2018-10-15T11:54:35.061Z,8.60
2018-10-15T11:55:35.159Z,9.50
2018-10-15T11:56:35.258Z,10.20
2018-10-15T11:57:35.359Z,13.10
2018-10-15T11:58:35.479Z,10.90
2018-10-15T11:59:35.555Z,9.20
2018-10-15T12:00:35.657Z,8.10
2018-10-15T12:01:35.769Z,8.80
2018-10-15T12:02:35.948Z,10.40
2018-10-15T12:03:35.970Z,10.10
2018-10-15T12:04:36.067Z,10.60
2018-10-15T12:05:36.168Z,9.80
2018-10-15T12:06:36.267Z,11.00
2018-10-15T12:07:36.365Z,9.30
2018-10-15T12:08:36.483Z,9.30
2018-10-15T12:09:36.585Z,11.00
2018-10-15T12:10:36.681Z,9.40
2018-10-15T12:11:36.781Z,9.30
2018-10-15T12:12:36.877Z,11.20
2018-10-15T12:13:36.976Z,9.20
2018-10-15T12:14:37.076Z,8.70
2018-10-15T12:15:37.193Z,9.70
2018-10-15T12:16:37.373Z,10.10
2018-10-15T12:17:37.438Z,9.20
2018-10-15T12:18:37.492Z,9.10
2018-10-15T12:19:37.591Z,8.00
2018-10-15T12:20:37.691Z,8.80
2018-10-15T12:21:37.795Z,9.20
2018-10-15T12:22:37.937Z,7.40
2018-10-15T12:23:38.008Z,7.50
2018-10-15T12:24:38.108Z,8.80
2018-10-15T12:25:38.211Z,8.70
2018-10-15T12:26:38.305Z,7.60
2018-10-15T12:27:38.404Z,8.30
2018-10-15T12:28:38.505Z,9.00
2018-10-15T12:29:38.615Z,8.80
2018-10-15T12:30:38.704Z,7.40
2018-10-15T12:31:38.805Z,10.80
2018-10-15T12:32:38.905Z,10.90
2018-10-15T12:33:39.006Z,10.40
2018-10-15T12:34:39.108Z,8.10
2018-10-15T12:35:39.208Z,8.40
2018-10-15T12:36:39.307Z,10.20
2018-10-15T12:37:39.405Z,9.80
2018-10-15T12:38:39.504Z,8.80
2018-10-15T12:39:39.607Z,10.40
2018-10-15T12:40:39.706Z,10.10
2018-10-15T12:41:39.807Z,8.90
2018-10-15T12:42:39.907Z,10.30
2018-10-15T12:43:40.017Z,11.20
2018-10-15T12:44:40.109Z,9.30
2018-10-15T12:45:40.208Z,9.80
2018-10-15T12:46:40.309Z,11.50
2018-10-15T12:47:40.514Z,9.20
2018-10-15T12:48:40.510Z,11.10
2018-10-15T12:49:40.609Z,10.40
2018-10-15T12:50:40.699Z,8.30
2018-10-15T12:51:40.810Z,8.00
2018-10-15T12:52:40.908Z,9.00
2018-10-15T12:53:41.163Z,8.40
2018-10-15T12:54:41.110Z,8.60
2018-10-15T12:55:41.211Z,8.80